sensor_id;sensor_type;location;lat;lon;timestamp;P1;durP1;ratioP1;P2;durP2;ratioP2
13475;SDS011;6810;63.824;20.288;2023-03-14T00:01:31;1.70;;;0.33;;
13475;SDS011;6810;63.824;20.288;2023-03-14T00:04:18;0.60;;;0.50;;
13475;SDS011;6810;63.824;20.288;2023-03-14T00:07:05;1.37;;;0.40;;
13475;SDS011;6810;63.824;20.288;2023-03-14T00:09:52;0.20;;;0.20;;
13475;SDS011;6810;63.824;20.288;2023-03-14T00:12:39;0.57;;;0.30;;
13475;SDS011;6810;63.824;20.288;2023-03-14T00:15:27;1.67;;;0.40;;
13475;SDS011;6810;63.824;20.288;2023-03-14T00:18:14;1.33;;;0.50;;
13475;SDS011;6810;63.824;20.288;2023-03-14T00:21:01;0.53;;;0.20;;
13475;SDS011;6810;63.824;20.288;2023-03-14T00:23:51;0.47;;;0.30;;
13475;SDS011;6810;63.824;20.288;2023-03-14T00:26:38;1.53;;;0.50;;
13475;SDS011;6810;63.824;20.288;2023-03-14T00:29:25;1.33;;;0.43;;
13475;SDS011;6810;63.824;20.288;2023-03-14T00:32:12;1.77;;;0.60;;
13475;SDS011;6810;63.824;20.288;2023-03-14T00:35:00;1.13;;;0.40;;
13475;SDS011;6810;63.824;20.288;2023-03-14T00:37:47;1.00;;;0.40;;
13475;SDS011;6810;63.824;20.288;2023-03-14T00:40:38;0.80;;;0.50;;
13475;SDS011;6810;63.824;20.288;2023-03-14T00:43:25;1.27;;;0.50;;
13475;SDS011;6810;63.824;20.288;2023-03-14T00:46:13;0.60;;;0.27;;
13475;SDS011;6810;63.824;20.288;2023-03-14T00:49:00;0.57;;;0.30;;
13475;SDS011;6810;63.824;20.288;2023-03-14T00:51:50;0.57;;;0.40;;
13475;SDS011;6810;63.824;20.288;2023-03-14T00:54:37;1.00;;;0.43;;
13475;SDS011;6810;63.824;20.288;2023-03-14T00:57:24;1.03;;;0.50;;
13475;SDS011;6810;63.824;20.288;2023-03-14T01:00:11;0.50;;;0.30;;
13475;SDS011;6810;63.824;20.288;2023-03-14T01:02:58;1.80;;;0.60;;
13475;SDS011;6810;63.824;20.288;2023-03-14T01:05:46;0.60;;;0.40;;
13475;SDS011;6810;63.824;20.288;2023-03-14T01:08:34;1.57;;;0.50;;
13475;SDS011;6810;63.824;20.288;2023-03-14T01:11:28;2.70;;;0.80;;
13475;SDS011;6810;63.824;20.288;2023-03-14T01:14:17;1.00;;;0.50;;
13475;SDS011;6810;63.824;20.288;2023-03-14T01:17:04;0.70;;;0.50;;
13475;SDS011;6810;63.824;20.288;2023-03-14T01:19:51;2.83;;;0.63;;
13475;SDS011;6810;63.824;20.288;2023-03-14T01:22:38;1.50;;;0.60;;
13475;SDS011;6810;63.824;20.288;2023-03-14T01:25:26;1.70;;;0.50;;
13475;SDS011;6810;63.824;20.288;2023-03-14T01:28:14;1.43;;;0.60;;
13475;SDS011;6810;63.824;20.288;2023-03-14T01:31:04;3.30;;;0.60;;
13475;SDS011;6810;63.824;20.288;2023-03-14T01:33:53;1.13;;;0.80;;
13475;SDS011;6810;63.824;20.288;2023-03-14T01:36:41;1.27;;;0.93;;
13475;SDS011;6810;63.824;20.288;2023-03-14T01:39:29;1.10;;;0.60;;
13475;SDS011;6810;63.824;20.288;2023-03-14T01:42:18;2.17;;;0.50;;
13475;SDS011;6810;63.824;20.288;2023-03-14T01:45:53;2.10;;;0.60;;
13475;SDS011;6810;63.824;20.288;2023-03-14T01:54:34;2.83;;;0.57;;
13475;SDS011;6810;63.824;20.288;2023-03-14T01:57:28;2.10;;;0.53;;
13475;SDS011;6810;63.824;20.288;2023-03-14T02:00:19;2.30;;;0.50;;
13475;SDS011;6810;63.824;20.288;2023-03-14T02:03:16;1.47;;;0.30;;
13475;SDS011;6810;63.824;20.288;2023-03-14T02:06:05;1.60;;;0.50;;
13475;SDS011;6810;63.824;20.288;2023-03-14T02:08:57;0.60;;;0.40;;
13475;SDS011;6810;63.824;20.288;2023-03-14T02:11:47;1.37;;;0.50;;
13475;SDS011;6810;63.824;20.288;2023-03-14T02:14:59;1.37;;;0.40;;
13475;SDS011;6810;63.824;20.288;2023-03-14T02:18:03;1.47;;;0.60;;
13475;SDS011;6810;63.824;20.288;2023-03-14T02:21:20;1.27;;;0.50;;
13475;SDS011;6810;63.824;20.288;2023-03-14T02:27:17;2.67;;;0.50;;
13475;SDS011;6810;63.824;20.288;2023-03-14T02:30:06;0.90;;;0.40;;
13475;SDS011;6810;63.824;20.288;2023-03-14T02:32:59;0.50;;;0.50;;
13475;SDS011;6810;63.824;20.288;2023-03-14T02:35:51;1.10;;;0.30;;
13475;SDS011;6810;63.824;20.288;2023-03-14T02:38:46;1.47;;;0.40;;
13475;SDS011;6810;63.824;20.288;2023-03-14T02:41:42;1.00;;;0.40;;
13475;SDS011;6810;63.824;20.288;2023-03-14T02:44:29;1.00;;;0.50;;
13475;SDS011;6810;63.824;20.288;2023-03-14T02:47:18;0.80;;;0.50;;
13475;SDS011;6810;63.824;20.288;2023-03-14T02:50:10;0.73;;;0.40;;
13475;SDS011;6810;63.824;20.288;2023-03-14T02:53:01;1.20;;;0.30;;
13475;SDS011;6810;63.824;20.288;2023-03-14T02:55:49;1.57;;;0.60;;
13475;SDS011;6810;63.824;20.288;2023-03-14T02:58:37;0.80;;;0.40;;
13475;SDS011;6810;63.824;20.288;2023-03-14T03:01:50;0.70;;;0.43;;
13475;SDS011;6810;63.824;20.288;2023-03-14T03:04:37;1.17;;;0.77;;
13475;SDS011;6810;63.824;20.288;2023-03-14T03:07:25;2.10;;;0.30;;
13475;SDS011;6810;63.824;20.288;2023-03-14T03:10:12;2.37;;;0.77;;
13475;SDS011;6810;63.824;20.288;2023-03-14T03:12:59;1.80;;;0.47;;
13475;SDS011;6810;63.824;20.288;2023-03-14T03:15:50;1.77;;;0.40;;
13475;SDS011;6810;63.824;20.288;2023-03-14T03:18:38;0.73;;;0.37;;
13475;SDS011;6810;63.824;20.288;2023-03-14T03:21:25;1.77;;;0.43;;
13475;SDS011;6810;63.824;20.288;2023-03-14T03:24:12;0.97;;;0.47;;
13475;SDS011;6810;63.824;20.288;2023-03-14T03:27:01;0.50;;;0.43;;
13475;SDS011;6810;63.824;20.288;2023-03-14T03:29:48;0.67;;;0.40;;
13475;SDS011;6810;63.824;20.288;2023-03-14T03:32:35;0.47;;;0.47;;
13475;SDS011;6810;63.824;20.288;2023-03-14T03:35:22;1.33;;;0.70;;
13475;SDS011;6810;63.824;20.288;2023-03-14T03:38:09;0.40;;;0.40;;
13475;SDS011;6810;63.824;20.288;2023-03-14T03:41:02;1.27;;;0.60;;
13475;SDS011;6810;63.824;20.288;2023-03-14T03:43:51;2.23;;;0.60;;
13475;SDS011;6810;63.824;20.288;2023-03-14T03:46:39;0.87;;;0.47;;
13475;SDS011;6810;63.824;20.288;2023-03-14T03:49:29;1.07;;;0.53;;
13475;SDS011;6810;63.824;20.288;2023-03-14T03:52:17;0.40;;;0.40;;
13475;SDS011;6810;63.824;20.288;2023-03-14T03:55:05;0.40;;;0.40;;
13475;SDS011;6810;63.824;20.288;2023-03-14T03:57:52;1.07;;;0.40;;
13475;SDS011;6810;63.824;20.288;2023-03-14T04:00:39;0.50;;;0.50;;
13475;SDS011;6810;63.824;20.288;2023-03-14T04:03:26;0.97;;;0.50;;
13475;SDS011;6810;63.824;20.288;2023-03-14T04:06:14;1.70;;;0.70;;
13475;SDS011;6810;63.824;20.288;2023-03-14T04:09:02;0.53;;;0.30;;
13475;SDS011;6810;63.824;20.288;2023-03-14T04:12:06;0.83;;;0.40;;
13475;SDS011;6810;63.824;20.288;2023-03-14T04:15:05;1.90;;;0.50;;
13475;SDS011;6810;63.824;20.288;2023-03-14T04:17:56;0.53;;;0.20;;
13475;SDS011;6810;63.824;20.288;2023-03-14T04:20:44;1.13;;;0.30;;
13475;SDS011;6810;63.824;20.288;2023-03-14T04:23:41;1.03;;;0.40;;
13475;SDS011;6810;63.824;20.288;2023-03-14T04:26:31;0.47;;;0.30;;
13475;SDS011;6810;63.824;20.288;2023-03-14T04:29:18;1.83;;;0.40;;
13475;SDS011;6810;63.824;20.288;2023-03-14T04:32:06;0.80;;;0.50;;
13475;SDS011;6810;63.824;20.288;2023-03-14T04:34:54;0.30;;;0.30;;
13475;SDS011;6810;63.824;20.288;2023-03-14T04:37:52;0.93;;;0.20;;
13475;SDS011;6810;63.824;20.288;2023-03-14T04:40:43;2.27;;;0.60;;
13475;SDS011;6810;63.824;20.288;2023-03-14T04:43:32;0.30;;;0.30;;
13475;SDS011;6810;63.824;20.288;2023-03-14T04:46:19;0.70;;;0.37;;
13475;SDS011;6810;63.824;20.288;2023-03-14T04:49:07;1.13;;;0.40;;
13475;SDS011;6810;63.824;20.288;2023-03-14T04:51:54;1.17;;;0.50;;
13475;SDS011;6810;63.824;20.288;2023-03-14T04:54:41;1.40;;;0.50;;
13475;SDS011;6810;63.824;20.288;2023-03-14T04:57:28;1.70;;;0.40;;
13475;SDS011;6810;63.824;20.288;2023-03-14T05:00:16;0.30;;;0.30;;
13475;SDS011;6810;63.824;20.288;2023-03-14T05:03:25;1.40;;;0.40;;
13475;SDS011;6810;63.824;20.288;2023-03-14T05:06:49;0.20;;;0.20;;
13475;SDS011;6810;63.824;20.288;2023-03-14T05:10:02;0.53;;;0.30;;
13475;SDS011;6810;63.824;20.288;2023-03-14T05:13:12;0.57;;;0.33;;
13475;SDS011;6810;63.824;20.288;2023-03-14T05:16:25;1.47;;;0.33;;
13475;SDS011;6810;63.824;20.288;2023-03-14T05:19:28;0.50;;;0.50;;
13475;SDS011;6810;63.824;20.288;2023-03-14T05:22:41;0.97;;;0.50;;
13475;SDS011;6810;63.824;20.288;2023-03-14T05:25:58;1.13;;;0.40;;
13475;SDS011;6810;63.824;20.288;2023-03-14T05:28:58;0.50;;;0.40;;
13475;SDS011;6810;63.824;20.288;2023-03-14T05:31:56;0.80;;;0.43;;
13475;SDS011;6810;63.824;20.288;2023-03-14T05:35:00;1.70;;;0.53;;
13475;SDS011;6810;63.824;20.288;2023-03-14T05:38:06;0.70;;;0.30;;
13475;SDS011;6810;63.824;20.288;2023-03-14T05:41:16;0.30;;;0.20;;
13475;SDS011;6810;63.824;20.288;2023-03-14T05:44:22;0.70;;;0.60;;
13475;SDS011;6810;63.824;20.288;2023-03-14T05:47:09;1.00;;;0.50;;
13475;SDS011;6810;63.824;20.288;2023-03-14T05:50:13;0.50;;;0.40;;
13475;SDS011;6810;63.824;20.288;2023-03-14T05:53:26;0.80;;;0.33;;
13475;SDS011;6810;63.824;20.288;2023-03-14T05:56:31;1.63;;;0.90;;
13475;SDS011;6810;63.824;20.288;2023-03-14T05:59:35;0.63;;;0.40;;
13475;SDS011;6810;63.824;20.288;2023-03-14T06:02:41;0.80;;;0.50;;
13475;SDS011;6810;63.824;20.288;2023-03-14T06:05:33;0.50;;;0.50;;
13475;SDS011;6810;63.824;20.288;2023-03-14T06:08:22;2.07;;;0.77;;
13475;SDS011;6810;63.824;20.288;2023-03-14T06:11:10;1.03;;;0.60;;
13475;SDS011;6810;63.824;20.288;2023-03-14T06:13:57;2.10;;;0.70;;
13475;SDS011;6810;63.824;20.288;2023-03-14T06:16:46;2.00;;;0.67;;
13475;SDS011;6810;63.824;20.288;2023-03-14T06:19:40;1.13;;;0.77;;
13475;SDS011;6810;63.824;20.288;2023-03-14T06:22:29;1.67;;;0.63;;
13475;SDS011;6810;63.824;20.288;2023-03-14T06:25:16;2.10;;;0.60;;
13475;SDS011;6810;63.824;20.288;2023-03-14T06:28:03;2.70;;;0.50;;
13475;SDS011;6810;63.824;20.288;2023-03-14T06:30:56;1.93;;;0.70;;
13475;SDS011;6810;63.824;20.288;2023-03-14T06:33:52;0.90;;;0.67;;
13475;SDS011;6810;63.824;20.288;2023-03-14T06:36:39;1.27;;;0.60;;
13475;SDS011;6810;63.824;20.288;2023-03-14T06:39:26;1.53;;;0.70;;
13475;SDS011;6810;63.824;20.288;2023-03-14T06:42:25;1.37;;;0.70;;
13475;SDS011;6810;63.824;20.288;2023-03-14T06:45:14;1.30;;;0.87;;
13475;SDS011;6810;63.824;20.288;2023-03-14T06:48:02;1.30;;;0.67;;
13475;SDS011;6810;63.824;20.288;2023-03-14T06:50:52;1.17;;;0.70;;
13475;SDS011;6810;63.824;20.288;2023-03-14T06:53:39;1.70;;;0.70;;
13475;SDS011;6810;63.824;20.288;2023-03-14T06:56:28;1.07;;;0.70;;
13475;SDS011;6810;63.824;20.288;2023-03-14T06:59:15;1.73;;;0.50;;
13475;SDS011;6810;63.824;20.288;2023-03-14T07:02:02;1.23;;;0.70;;
13475;SDS011;6810;63.824;20.288;2023-03-14T07:05:07;2.53;;;0.90;;
13475;SDS011;6810;63.824;20.288;2023-03-14T07:07:55;1.43;;;0.73;;
13475;SDS011;6810;63.824;20.288;2023-03-14T07:10:42;1.20;;;0.70;;
13475;SDS011;6810;63.824;20.288;2023-03-14T07:13:29;1.33;;;0.67;;
13475;SDS011;6810;63.824;20.288;2023-03-14T07:16:16;0.67;;;0.60;;
13475;SDS011;6810;63.824;20.288;2023-03-14T07:19:03;1.23;;;0.70;;
13475;SDS011;6810;63.824;20.288;2023-03-14T07:21:50;1.67;;;0.73;;
13475;SDS011;6810;63.824;20.288;2023-03-14T07:24:37;1.23;;;0.80;;
13475;SDS011;6810;63.824;20.288;2023-03-14T07:27:25;2.10;;;1.03;;
13475;SDS011;6810;63.824;20.288;2023-03-14T07:30:12;0.80;;;0.70;;
13475;SDS011;6810;63.824;20.288;2023-03-14T07:33:02;2.00;;;0.60;;
13475;SDS011;6810;63.824;20.288;2023-03-14T07:35:49;1.17;;;0.70;;
13475;SDS011;6810;63.824;20.288;2023-03-14T07:38:40;2.23;;;0.60;;
13475;SDS011;6810;63.824;20.288;2023-03-14T07:41:35;1.83;;;0.53;;
13475;SDS011;6810;63.824;20.288;2023-03-14T07:44:24;0.97;;;0.50;;
13475;SDS011;6810;63.824;20.288;2023-03-14T07:47:12;0.60;;;0.60;;
13475;SDS011;6810;63.824;20.288;2023-03-14T07:49:59;0.90;;;0.60;;
13475;SDS011;6810;63.824;20.288;2023-03-14T07:52:46;1.13;;;0.60;;
13475;SDS011;6810;63.824;20.288;2023-03-14T07:55:33;0.70;;;0.50;;
13475;SDS011;6810;63.824;20.288;2023-03-14T07:58:20;1.30;;;0.50;;
13475;SDS011;6810;63.824;20.288;2023-03-14T08:00:51;1.23;;;0.80;;
13475;SDS011;6810;63.824;20.288;2023-03-14T08:03:19;0.70;;;0.40;;
13475;SDS011;6810;63.824;20.288;2023-03-14T08:05:47;0.90;;;0.67;;
13475;SDS011;6810;63.824;20.288;2023-03-14T08:08:16;0.67;;;0.40;;
13475;SDS011;6810;63.824;20.288;2023-03-14T08:10:43;2.10;;;0.93;;
13475;SDS011;6810;63.824;20.288;2023-03-14T08:13:10;0.83;;;0.80;;
13475;SDS011;6810;63.824;20.288;2023-03-14T08:15:37;1.23;;;0.70;;
13475;SDS011;6810;63.824;20.288;2023-03-14T08:18:04;0.80;;;0.50;;
13475;SDS011;6810;63.824;20.288;2023-03-14T08:20:32;0.70;;;0.60;;
13475;SDS011;6810;63.824;20.288;2023-03-14T08:23:00;1.63;;;0.60;;
13475;SDS011;6810;63.824;20.288;2023-03-14T08:25:27;1.70;;;0.70;;
13475;SDS011;6810;63.824;20.288;2023-03-14T08:27:55;1.63;;;0.70;;
13475;SDS011;6810;63.824;20.288;2023-03-14T08:30:22;1.50;;;0.60;;
13475;SDS011;6810;63.824;20.288;2023-03-14T08:32:49;0.87;;;0.50;;
13475;SDS011;6810;63.824;20.288;2023-03-14T08:35:17;2.07;;;0.60;;
13475;SDS011;6810;63.824;20.288;2023-03-14T08:37:44;0.80;;;0.50;;
13475;SDS011;6810;63.824;20.288;2023-03-14T08:40:11;1.80;;;0.50;;
13475;SDS011;6810;63.824;20.288;2023-03-14T08:42:39;1.33;;;0.57;;
13475;SDS011;6810;63.824;20.288;2023-03-14T08:45:07;1.90;;;0.70;;
13475;SDS011;6810;63.824;20.288;2023-03-14T08:47:34;1.20;;;0.73;;
13475;SDS011;6810;63.824;20.288;2023-03-14T08:50:02;0.80;;;0.67;;
13475;SDS011;6810;63.824;20.288;2023-03-14T08:52:31;2.20;;;0.87;;
13475;SDS011;6810;63.824;20.288;2023-03-14T08:54:58;1.07;;;0.73;;
13475;SDS011;6810;63.824;20.288;2023-03-14T08:57:25;0.93;;;0.80;;
13475;SDS011;6810;63.824;20.288;2023-03-14T08:59:56;1.27;;;0.80;;
13475;SDS011;6810;63.824;20.288;2023-03-14T09:02:24;1.57;;;1.20;;
13475;SDS011;6810;63.824;20.288;2023-03-14T09:04:53;1.27;;;0.80;;
13475;SDS011;6810;63.824;20.288;2023-03-14T09:07:20;1.00;;;0.80;;
13475;SDS011;6810;63.824;20.288;2023-03-14T09:09:47;1.00;;;0.73;;
13475;SDS011;6810;63.824;20.288;2023-03-14T09:12:14;1.57;;;1.00;;
13475;SDS011;6810;63.824;20.288;2023-03-14T09:14:40;1.13;;;0.93;;
13475;SDS011;6810;63.824;20.288;2023-03-14T09:17:07;1.77;;;1.07;;
13475;SDS011;6810;63.824;20.288;2023-03-14T09:19:35;1.53;;;1.10;;
13475;SDS011;6810;63.824;20.288;2023-03-14T09:22:02;1.10;;;0.93;;
13475;SDS011;6810;63.824;20.288;2023-03-14T09:24:29;1.63;;;1.30;;
13475;SDS011;6810;63.824;20.288;2023-03-14T09:26:56;4.07;;;1.30;;
13475;SDS011;6810;63.824;20.288;2023-03-14T09:29:23;1.47;;;1.20;;
13475;SDS011;6810;63.824;20.288;2023-03-14T09:31:51;1.83;;;1.30;;
13475;SDS011;6810;63.824;20.288;2023-03-14T09:34:18;1.30;;;1.17;;
13475;SDS011;6810;63.824;20.288;2023-03-14T09:36:45;2.23;;;1.20;;
13475;SDS011;6810;63.824;20.288;2023-03-14T09:39:12;2.83;;;1.80;;
13475;SDS011;6810;63.824;20.288;2023-03-14T09:41:43;3.07;;;1.63;;
13475;SDS011;6810;63.824;20.288;2023-03-14T09:46:47;2.30;;;1.47;;
13475;SDS011;6810;63.824;20.288;2023-03-14T09:51:46;2.70;;;1.47;;
13475;SDS011;6810;63.824;20.288;2023-03-14T09:56:58;1.83;;;1.17;;
13475;SDS011;6810;63.824;20.288;2023-03-14T09:59:26;2.07;;;1.40;;
13475;SDS011;6810;63.824;20.288;2023-03-14T10:01:57;1.57;;;1.20;;
13475;SDS011;6810;63.824;20.288;2023-03-14T10:04:28;1.90;;;1.10;;
13475;SDS011;6810;63.824;20.288;2023-03-14T10:06:56;1.63;;;1.03;;
13475;SDS011;6810;63.824;20.288;2023-03-14T10:09:23;1.50;;;1.00;;
13475;SDS011;6810;63.824;20.288;2023-03-14T10:11:57;0.97;;;0.80;;
13475;SDS011;6810;63.824;20.288;2023-03-14T10:14:35;1.30;;;0.87;;
13475;SDS011;6810;63.824;20.288;2023-03-14T10:17:05;1.27;;;0.90;;
13475;SDS011;6810;63.824;20.288;2023-03-14T10:19:34;2.30;;;1.00;;
13475;SDS011;6810;63.824;20.288;2023-03-14T10:22:03;1.83;;;0.80;;
13475;SDS011;6810;63.824;20.288;2023-03-14T10:24:33;1.27;;;0.77;;
13475;SDS011;6810;63.824;20.288;2023-03-14T10:27:02;0.77;;;0.70;;
13475;SDS011;6810;63.824;20.288;2023-03-14T10:29:52;0.73;;;0.70;;
13475;SDS011;6810;63.824;20.288;2023-03-14T10:32:29;0.60;;;0.60;;
13475;SDS011;6810;63.824;20.288;2023-03-14T10:37:49;0.77;;;0.70;;
13475;SDS011;6810;63.824;20.288;2023-03-14T10:40:19;1.00;;;0.63;;
13475;SDS011;6810;63.824;20.288;2023-03-14T10:42:50;1.07;;;0.67;;
13475;SDS011;6810;63.824;20.288;2023-03-14T10:53:24;0.67;;;0.67;;
13475;SDS011;6810;63.824;20.288;2023-03-14T10:55:55;1.70;;;0.60;;
13475;SDS011;6810;63.824;20.288;2023-03-14T10:58:23;1.13;;;0.80;;
13475;SDS011;6810;63.824;20.288;2023-03-14T11:04:12;0.50;;;0.50;;
13475;SDS011;6810;63.824;20.288;2023-03-14T11:11:58;0.57;;;0.50;;
13475;SDS011;6810;63.824;20.288;2023-03-14T11:14:38;0.80;;;0.67;;
13475;SDS011;6810;63.824;20.288;2023-03-14T11:17:19;0.50;;;0.50;;
13475;SDS011;6810;63.824;20.288;2023-03-14T11:36:21;1.13;;;0.70;;
13475;SDS011;6810;63.824;20.288;2023-03-14T11:38:58;0.97;;;0.60;;
13475;SDS011;6810;63.824;20.288;2023-03-14T11:41:33;1.47;;;0.90;;
13475;SDS011;6810;63.824;20.288;2023-03-14T11:44:25;1.23;;;0.60;;
13475;SDS011;6810;63.824;20.288;2023-03-14T11:46:56;1.20;;;0.70;;
13475;SDS011;6810;63.824;20.288;2023-03-14T11:52:10;0.37;;;0.37;;
13475;SDS011;6810;63.824;20.288;2023-03-14T11:54:55;0.43;;;0.40;;
13475;SDS011;6810;63.824;20.288;2023-03-14T11:57:24;1.10;;;0.77;;
13475;SDS011;6810;63.824;20.288;2023-03-14T12:02:25;1.67;;;0.67;;
13475;SDS011;6810;63.824;20.288;2023-03-14T12:07:34;0.50;;;0.40;;
13475;SDS011;6810;63.824;20.288;2023-03-14T12:10:09;0.87;;;0.60;;
13475;SDS011;6810;63.824;20.288;2023-03-14T12:12:36;0.57;;;0.40;;
13475;SDS011;6810;63.824;20.288;2023-03-14T12:15:04;0.60;;;0.60;;
13475;SDS011;6810;63.824;20.288;2023-03-14T12:17:36;0.50;;;0.50;;
13475;SDS011;6810;63.824;20.288;2023-03-14T12:20:14;1.13;;;0.70;;
13475;SDS011;6810;63.824;20.288;2023-03-14T12:22:46;0.63;;;0.47;;
13475;SDS011;6810;63.824;20.288;2023-03-14T12:25:20;0.87;;;0.63;;
13475;SDS011;6810;63.824;20.288;2023-03-14T12:30:24;0.87;;;0.70;;
13475;SDS011;6810;63.824;20.288;2023-03-14T12:35:46;1.60;;;0.60;;
13475;SDS011;6810;63.824;20.288;2023-03-14T12:38:26;0.43;;;0.40;;
13475;SDS011;6810;63.824;20.288;2023-03-14T12:41:13;1.13;;;0.60;;
13475;SDS011;6810;63.824;20.288;2023-03-14T12:43:44;1.27;;;0.50;;
13475;SDS011;6810;63.824;20.288;2023-03-14T12:46:29;0.93;;;0.40;;
13475;SDS011;6810;63.824;20.288;2023-03-14T12:51:39;1.07;;;0.67;;
13475;SDS011;6810;63.824;20.288;2023-03-14T12:54:14;1.13;;;0.70;;
13475;SDS011;6810;63.824;20.288;2023-03-14T13:02:25;1.37;;;0.50;;
13475;SDS011;6810;63.824;20.288;2023-03-14T13:05:09;2.17;;;0.70;;
13475;SDS011;6810;63.824;20.288;2023-03-14T13:12:39;0.70;;;0.60;;
13475;SDS011;6810;63.824;20.288;2023-03-14T13:15:13;0.77;;;0.60;;
13475;SDS011;6810;63.824;20.288;2023-03-14T13:17:46;0.97;;;0.60;;
13475;SDS011;6810;63.824;20.288;2023-03-14T13:20:50;1.37;;;0.50;;
13475;SDS011;6810;63.824;20.288;2023-03-14T13:23:53;0.30;;;0.30;;
13475;SDS011;6810;63.824;20.288;2023-03-14T13:26:14;1.50;;;0.60;;
13475;SDS011;6810;63.824;20.288;2023-03-14T13:28:41;0.60;;;0.47;;
13475;SDS011;6810;63.824;20.288;2023-03-14T13:31:22;0.63;;;0.40;;
13475;SDS011;6810;63.824;20.288;2023-03-14T13:33:58;0.70;;;0.50;;
13475;SDS011;6810;63.824;20.288;2023-03-14T13:36:26;0.37;;;0.37;;
13475;SDS011;6810;63.824;20.288;2023-03-14T13:38:57;0.60;;;0.60;;
13475;SDS011;6810;63.824;20.288;2023-03-14T13:41:26;0.70;;;0.57;;
13475;SDS011;6810;63.824;20.288;2023-03-14T13:44:29;1.27;;;0.60;;
13475;SDS011;6810;63.824;20.288;2023-03-14T13:47:03;1.47;;;0.40;;
13475;SDS011;6810;63.824;20.288;2023-03-14T13:49:33;0.50;;;0.50;;
13475;SDS011;6810;63.824;20.288;2023-03-14T13:52:02;0.60;;;0.40;;
13475;SDS011;6810;63.824;20.288;2023-03-14T13:54:30;0.97;;;0.60;;
13475;SDS011;6810;63.824;20.288;2023-03-14T13:57:02;0.43;;;0.43;;
13475;SDS011;6810;63.824;20.288;2023-03-14T13:59:31;0.60;;;0.40;;
13475;SDS011;6810;63.824;20.288;2023-03-14T14:02:04;0.63;;;0.60;;
13475;SDS011;6810;63.824;20.288;2023-03-14T14:04:44;1.07;;;0.63;;
13475;SDS011;6810;63.824;20.288;2023-03-14T14:07:15;0.67;;;0.40;;
13475;SDS011;6810;63.824;20.288;2023-03-14T14:09:47;1.00;;;0.40;;
13475;SDS011;6810;63.824;20.288;2023-03-14T14:14:48;0.50;;;0.50;;
13475;SDS011;6810;63.824;20.288;2023-03-14T14:20:10;1.10;;;0.40;;
13475;SDS011;6810;63.824;20.288;2023-03-14T14:22:47;0.60;;;0.60;;
13475;SDS011;6810;63.824;20.288;2023-03-14T14:25:15;1.20;;;0.53;;
13475;SDS011;6810;63.824;20.288;2023-03-14T14:27:43;0.93;;;0.60;;
13475;SDS011;6810;63.824;20.288;2023-03-14T14:32:45;0.80;;;0.70;;
13475;SDS011;6810;63.824;20.288;2023-03-14T14:35:24;0.70;;;0.50;;
13475;SDS011;6810;63.824;20.288;2023-03-14T14:38:02;0.43;;;0.40;;
13475;SDS011;6810;63.824;20.288;2023-03-14T14:40:43;0.63;;;0.40;;
13475;SDS011;6810;63.824;20.288;2023-03-14T14:43:14;1.53;;;0.50;;
13475;SDS011;6810;63.824;20.288;2023-03-14T14:45:45;0.40;;;0.40;;
13475;SDS011;6810;63.824;20.288;2023-03-14T14:48:17;0.70;;;0.40;;
13475;SDS011;6810;63.824;20.288;2023-03-14T14:56:16;1.70;;;0.43;;
13475;SDS011;6810;63.824;20.288;2023-03-14T14:58:49;2.00;;;0.33;;
13475;SDS011;6810;63.824;20.288;2023-03-14T15:01:17;0.70;;;0.70;;
13475;SDS011;6810;63.824;20.288;2023-03-14T15:03:47;0.50;;;0.40;;
13475;SDS011;6810;63.824;20.288;2023-03-14T15:06:17;0.50;;;0.40;;
13475;SDS011;6810;63.824;20.288;2023-03-14T15:08:46;0.30;;;0.30;;
13475;SDS011;6810;63.824;20.288;2023-03-14T15:11:18;0.40;;;0.40;;
13475;SDS011;6810;63.824;20.288;2023-03-14T15:13:50;0.30;;;0.30;;
13475;SDS011;6810;63.824;20.288;2023-03-14T15:16:19;0.87;;;0.40;;
13475;SDS011;6810;63.824;20.288;2023-03-14T15:18:51;0.43;;;0.37;;
13475;SDS011;6810;63.824;20.288;2023-03-14T15:21:22;0.93;;;0.50;;
13475;SDS011;6810;63.824;20.288;2023-03-14T15:23:51;0.77;;;0.50;;
13475;SDS011;6810;63.824;20.288;2023-03-14T15:26:19;0.73;;;0.30;;
13475;SDS011;6810;63.824;20.288;2023-03-14T15:28:49;0.40;;;0.40;;
13475;SDS011;6810;63.824;20.288;2023-03-14T15:31:16;0.20;;;0.20;;
13475;SDS011;6810;63.824;20.288;2023-03-14T15:33:45;0.50;;;0.30;;
13475;SDS011;6810;63.824;20.288;2023-03-14T15:36:26;0.90;;;0.43;;
13475;SDS011;6810;63.824;20.288;2023-03-14T15:38:55;0.87;;;0.40;;
13475;SDS011;6810;63.824;20.288;2023-03-14T15:41:22;0.80;;;0.30;;
13475;SDS011;6810;63.824;20.288;2023-03-14T15:43:50;0.40;;;0.40;;
13475;SDS011;6810;63.824;20.288;2023-03-14T15:46:18;0.93;;;0.30;;
13475;SDS011;6810;63.824;20.288;2023-03-14T15:48:45;0.37;;;0.37;;
13475;SDS011;6810;63.824;20.288;2023-03-14T15:51:12;0.50;;;0.30;;
13475;SDS011;6810;63.824;20.288;2023-03-14T15:53:40;0.90;;;0.60;;
13475;SDS011;6810;63.824;20.288;2023-03-14T15:56:09;1.07;;;0.50;;
13475;SDS011;6810;63.824;20.288;2023-03-14T15:58:39;1.23;;;0.73;;
13475;SDS011;6810;63.824;20.288;2023-03-14T16:01:07;1.47;;;0.77;;
13475;SDS011;6810;63.824;20.288;2023-03-14T16:03:37;0.50;;;0.50;;
13475;SDS011;6810;63.824;20.288;2023-03-14T16:06:05;1.03;;;0.67;;
13475;SDS011;6810;63.824;20.288;2023-03-14T16:08:32;0.73;;;0.50;;
13475;SDS011;6810;63.824;20.288;2023-03-14T16:10:59;0.30;;;0.30;;
13475;SDS011;6810;63.824;20.288;2023-03-14T16:13:26;0.73;;;0.73;;
13475;SDS011;6810;63.824;20.288;2023-03-14T16:16:00;1.30;;;0.57;;
13475;SDS011;6810;63.824;20.288;2023-03-14T16:18:29;0.80;;;0.50;;
13475;SDS011;6810;63.824;20.288;2023-03-14T16:20:59;1.20;;;0.50;;
13475;SDS011;6810;63.824;20.288;2023-03-14T16:23:28;2.23;;;0.70;;
13475;SDS011;6810;63.824;20.288;2023-03-14T16:25:55;0.73;;;0.60;;
13475;SDS011;6810;63.824;20.288;2023-03-14T16:28:23;0.70;;;0.50;;
13475;SDS011;6810;63.824;20.288;2023-03-14T16:30:51;1.10;;;0.67;;
13475;SDS011;6810;63.824;20.288;2023-03-14T16:33:18;1.27;;;0.60;;
13475;SDS011;6810;63.824;20.288;2023-03-14T16:35:58;0.97;;;0.50;;
13475;SDS011;6810;63.824;20.288;2023-03-14T16:38:27;0.60;;;0.50;;
13475;SDS011;6810;63.824;20.288;2023-03-14T16:41:20;0.90;;;0.60;;
13475;SDS011;6810;63.824;20.288;2023-03-14T16:43:46;1.50;;;0.53;;
13475;SDS011;6810;63.824;20.288;2023-03-14T16:46:18;1.00;;;0.90;;
13475;SDS011;6810;63.824;20.288;2023-03-14T16:48:48;1.03;;;0.90;;
13475;SDS011;6810;63.824;20.288;2023-03-14T16:51:15;1.20;;;0.80;;
13475;SDS011;6810;63.824;20.288;2023-03-14T16:53:43;2.17;;;1.37;;
13475;SDS011;6810;63.824;20.288;2023-03-14T16:56:11;1.47;;;0.93;;
13475;SDS011;6810;63.824;20.288;2023-03-14T16:58:38;1.37;;;1.00;;
13475;SDS011;6810;63.824;20.288;2023-03-14T17:01:06;1.57;;;1.03;;
13475;SDS011;6810;63.824;20.288;2023-03-14T17:03:38;1.73;;;1.00;;
13475;SDS011;6810;63.824;20.288;2023-03-14T17:06:09;2.03;;;1.13;;
13475;SDS011;6810;63.824;20.288;2023-03-14T17:08:37;1.53;;;0.87;;
13475;SDS011;6810;63.824;20.288;2023-03-14T17:11:04;1.27;;;0.90;;
13475;SDS011;6810;63.824;20.288;2023-03-14T17:13:32;0.93;;;0.70;;
13475;SDS011;6810;63.824;20.288;2023-03-14T17:16:00;0.67;;;0.67;;
13475;SDS011;6810;63.824;20.288;2023-03-14T17:18:28;1.57;;;0.77;;
13475;SDS011;6810;63.824;20.288;2023-03-14T17:20:57;2.00;;;1.00;;
13475;SDS011;6810;63.824;20.288;2023-03-14T17:23:25;1.03;;;0.80;;
13475;SDS011;6810;63.824;20.288;2023-03-14T17:25:54;2.20;;;1.00;;
13475;SDS011;6810;63.824;20.288;2023-03-14T17:28:22;2.40;;;1.10;;
13475;SDS011;6810;63.824;20.288;2023-03-14T17:33:28;1.30;;;1.10;;
13475;SDS011;6810;63.824;20.288;2023-03-14T17:35:55;1.70;;;1.03;;
13475;SDS011;6810;63.824;20.288;2023-03-14T17:38:22;1.27;;;1.00;;
13475;SDS011;6810;63.824;20.288;2023-03-14T17:40:49;1.60;;;0.93;;
13475;SDS011;6810;63.824;20.288;2023-03-14T17:43:16;1.03;;;0.83;;